Time,TemperatureF,DewpointF,PressureIn,WindDirection,WindDirectionDegrees,WindSpeedMPH,WindSpeedGustMPH,Humidity,HourlyPrecipIn,Conditions,Clouds,dailyrainin,SoftwareType,DateUTC
2013-02-06 00:04:00,14.9,10.8,30.16,NNW,327,1.0,2.0,83,0.00,,,0.00,meteohub,2013-02-06 06:04:00,
2013-02-06 00:09:00,14.7,10.6,30.17,NNW,327,1.0,2.0,83,0.00,,,0.00,meteohub,2013-02-06 06:09:00,
2013-02-06 00:14:00,14.5,10.4,30.17,NNW,327,0.0,2.0,83,0.00,,,0.00,meteohub,2013-02-06 06:14:00,
2013-02-06 00:19:00,14.4,10.2,30.17,NNW,327,0.0,2.0,83,0.00,,,0.00,meteohub,2013-02-06 06:19:00,
2013-02-06 00:24:00,14.4,10.4,30.17,NNW,327,0.0,2.0,84,0.00,,,0.00,meteohub,2013-02-06 06:24:00,
2013-02-06 00:30:00,14.2,10.2,30.17,NNW,327,1.0,2.0,84,0.00,,,0.00,meteohub,2013-02-06 06:30:00,
2013-02-06 00:35:00,14.0,10.0,30.16,NNW,327,0.0,2.0,84,0.00,,,0.00,meteohub,2013-02-06 06:35:00,
2013-02-06 00:40:00,13.8,9.9,30.16,NNW,327,0.0,2.0,84,0.00,,,0.00,meteohub,2013-02-06 06:40:00,
2013-02-06 00:45:00,13.8,9.9,30.16,NNW,327,0.0,2.0,84,0.00,,,0.00,meteohub,2013-02-06 06:45:00,
2013-02-06 00:50:00,13.6,10.0,30.16,NNW,327,0.0,2.0,85,0.00,,,0.00,meteohub,2013-02-06 06:50:00,
2013-02-06 00:55:00,13.5,9.9,30.16,NNW,327,1.0,2.0,85,0.00,,,0.00,meteohub,2013-02-06 06:55:00,
2013-02-06 01:01:00,12.0,7.5,30.16,NNW,327,0.0,2.0,82,0.00,,,0.00,meteohub,2013-02-06 07:01:00,
2013-02-06 01:06:00,11.5,7.5,30.17,NNW,327,0.0,2.0,84,0.00,,,0.00,meteohub,2013-02-06 07:06:00,
2013-02-06 01:11:00,10.4,6.6,30.17,NNW,327,1.0,2.0,84,0.00,,,0.00,meteohub,2013-02-06 07:11:00,
2013-02-06 01:16:00,9.5,5.9,30.17,NNW,327,0.0,2.0,85,0.00,,,0.00,meteohub,2013-02-06 07:16:00,
2013-02-06 01:21:00,8.4,4.8,30.17,NNW,327,1.0,2.0,85,0.00,,,0.00,meteohub,2013-02-06 07:21:00,
2013-02-06 01:26:00,7.9,4.6,30.18,NNW,327,1.0,2.0,86,0.00,,,0.00,meteohub,2013-02-06 07:26:00,
2013-02-06 01:31:00,7.2,3.9,30.18,NNW,327,1.0,2.0,86,0.00,,,0.00,meteohub,2013-02-06 07:31:00,
2013-02-06 01:37:00,7.2,4.1,30.18,NNW,327,1.0,2.0,87,0.00,,,0.00,meteohub,2013-02-06 07:37:00,
2013-02-06 01:42:00,7.3,4.5,30.19,NNW,327,2.0,2.0,88,0.00,,,0.00,meteohub,2013-02-06 07:42:00,
2013-02-06 01:47:00,7.0,4.1,30.19,NNW,327,1.0,2.0,88,0.00,,,0.00,meteohub,2013-02-06 07:47:00,
2013-02-06 01:52:00,7.3,4.8,30.19,NNW,327,1.0,2.0,89,0.00,,,0.00,meteohub,2013-02-06 07:52:00,
2013-02-06 01:57:00,7.2,4.3,30.19,NNW,327,1.0,2.0,88,0.00,,,0.00,meteohub,2013-02-06 07:57:00,
2013-02-06 02:02:00,6.4,3.7,30.19,NNW,327,1.0,2.0,88,0.00,,,0.00,meteohub,2013-02-06 08:02:00,
2013-02-06 02:07:00,6.1,3.4,30.19,NNW,327,1.0,2.0,88,0.00,,,0.00,meteohub,2013-02-06 08:07:00,
2013-02-06 02:12:00,6.6,4.1,30.19,NNW,327,0.0,2.0,89,0.00,,,0.00,meteohub,2013-02-06 08:12:00,
2013-02-06 02:17:00,7.0,4.5,30.19,NNW,327,0.0,2.0,89,0.00,,,0.00,meteohub,2013-02-06 08:17:00,
2013-02-06 02:22:00,7.3,4.8,30.19,NNW,327,0.0,2.0,89,0.00,,,0.00,meteohub,2013-02-06 08:22:00,
2013-02-06 02:27:00,7.3,4.8,30.19,NNW,327,0.0,2.0,89,0.00,,,0.00,meteohub,2013-02-06 08:27:00,
2013-02-06 02:32:00,7.5,5.0,30.19,NNW,327,0.0,0.0,89,0.00,,,0.00,meteohub,2013-02-06 08:32:00,
2013-02-06 02:37:00,7.9,5.5,30.19,NNW,327,0.0,0.0,90,0.00,,,0.00,meteohub,2013-02-06 08:37:00,
2013-02-06 02:42:00,7.9,5.5,30.19,NNW,327,0.0,0.0,90,0.00,,,0.00,meteohub,2013-02-06 08:42:00,
2013-02-06 02:47:00,7.9,5.5,30.19,NNW,327,0.0,0.0,90,0.00,,,0.00,meteohub,2013-02-06 08:47:00,
2013-02-06 02:52:00,7.5,5.0,30.19,NNW,327,0.0,0.0,89,0.00,,,0.00,meteohub,2013-02-06 08:52:00,
2013-02-06 02:57:00,7.0,4.5,30.19,NNW,327,2.0,2.0,89,0.00,,,0.00,meteohub,2013-02-06 08:57:00,
2013-02-06 03:02:00,6.4,3.9,30.19,NNW,327,1.0,2.0,89,0.00,,,0.00,meteohub,2013-02-06 09:02:00,
2013-02-06 03:07:00,5.4,2.7,30.20,NNW,327,2.0,2.0,88,0.00,,,0.00,meteohub,2013-02-06 09:07:00,
2013-02-06 03:12:00,4.8,2.1,30.20,NNW,327,2.0,3.0,88,0.00,,,0.00,meteohub,2013-02-06 09:12:00,
2013-02-06 03:17:00,4.5,1.8,30.20,NNW,327,2.0,3.0,88,0.00,,,0.00,meteohub,2013-02-06 09:17:00,
2013-02-06 03:22:00,4.6,2.1,30.20,NNW,327,1.0,3.0,89,0.00,,,0.00,meteohub,2013-02-06 09:22:00,
2013-02-06 03:27:00,5.4,3.0,30.19,NNW,327,0.0,3.0,90,0.00,,,0.00,meteohub,2013-02-06 09:27:00,
2013-02-06 03:32:00,5.4,2.8,30.19,NNW,327,0.0,3.0,89,0.00,,,0.00,meteohub,2013-02-06 09:32:00,
2013-02-06 03:37:00,5.2,2.7,30.20,NNW,327,1.0,2.0,89,0.00,,,0.00,meteohub,2013-02-06 09:37:00,
2013-02-06 03:42:00,4.8,2.3,30.20,NNW,327,1.0,2.0,89,0.00,,,0.00,meteohub,2013-02-06 09:42:00,
2013-02-06 03:47:00,4.5,1.9,30.20,NNW,327,1.0,2.0,89,0.00,,,0.00,meteohub,2013-02-06 09:47:00,
2013-02-06 03:52:00,3.6,0.9,30.21,NNW,327,2.0,2.0,88,0.00,,,0.00,meteohub,2013-02-06 09:52:00,
2013-02-06 03:57:00,2.7,0.0,30.22,NW,322,3.0,3.0,88,0.00,,,0.00,meteohub,2013-02-06 09:57:00,
2013-02-06 04:02:00,1.2,-1.7,30.22,NW,321,2.0,4.0,87,0.00,,,0.00,meteohub,2013-02-06 10:02:00,
2013-02-06 04:07:00,1.2,-1.7,30.22,NW,321,2.0,4.0,87,0.00,,,0.00,meteohub,2013-02-06 10:07:00,
2013-02-06 04:12:00,1.6,-1.1,30.22,NW,321,2.0,4.0,88,0.00,,,0.00,meteohub,2013-02-06 10:12:00,
2013-02-06 04:17:00,2.1,-0.6,30.22,NW,321,2.0,3.0,88,0.00,,,0.00,meteohub,2013-02-06 10:17:00,
2013-02-06 04:22:00,2.5,-0.2,30.22,NW,321,3.0,3.0,88,0.00,,,0.00,meteohub,2013-02-06 10:22:00,
2013-02-06 04:27:00,2.1,-0.6,30.22,NW,321,1.0,3.0,88,0.00,,,0.00,meteohub,2013-02-06 10:27:00,
2013-02-06 04:32:00,1.9,-0.8,30.22,NW,321,2.0,3.0,88,0.00,,,0.00,meteohub,2013-02-06 10:32:00,
2013-02-06 04:37:00,2.1,-0.6,30.22,West,266,1.0,3.0,88,0.00,,,0.00,meteohub,2013-02-06 10:37:00,
2013-02-06 04:42:00,2.5,0.0,30.21,West,266,1.0,3.0,89,0.00,,,0.00,meteohub,2013-02-06 10:42:00,
2013-02-06 04:47:00,3.2,0.7,30.21,West,265,2.0,3.0,89,0.00,,,0.00,meteohub,2013-02-06 10:47:00,
2013-02-06 04:52:00,3.6,1.0,30.21,West,265,1.0,3.0,89,0.00,,,0.00,meteohub,2013-02-06 10:52:00,
2013-02-06 04:57:00,3.9,1.4,30.21,West,265,0.0,3.0,89,0.00,,,0.00,meteohub,2013-02-06 10:57:00,
2013-02-06 05:02:00,4.3,1.8,30.20,West,265,0.0,3.0,89,0.00,,,0.00,meteohub,2013-02-06 11:02:00,
2013-02-06 05:07:00,4.3,1.8,30.20,West,265,1.0,2.0,89,0.00,,,0.00,meteohub,2013-02-06 11:07:00,
2013-02-06 05:12:00,4.3,1.8,30.21,West,265,1.0,2.0,89,0.00,,,0.00,meteohub,2013-02-06 11:12:00,
2013-02-06 05:17:00,4.6,2.3,30.22,West,265,3.0,3.0,90,0.00,,,0.00,meteohub,2013-02-06 11:17:00,
2013-02-06 05:23:00,4.5,1.9,30.21,West,265,2.0,4.0,89,0.00,,,0.00,meteohub,2013-02-06 11:23:00,
2013-02-06 05:28:00,5.2,2.8,30.22,West,265,2.0,4.0,90,0.00,,,0.00,meteohub,2013-02-06 11:28:00,
2013-02-06 05:33:00,4.8,2.3,30.22,West,265,2.0,4.0,89,0.00,,,0.00,meteohub,2013-02-06 11:33:00,
2013-02-06 05:38:00,4.8,2.3,30.22,West,265,2.0,3.0,89,0.00,,,0.00,meteohub,2013-02-06 11:38:00,
2013-02-06 05:43:00,4.5,1.9,30.21,West,265,2.0,3.0,89,0.00,,,0.00,meteohub,2013-02-06 11:43:00,
2013-02-06 05:49:00,5.2,5.2,30.21,West,265,0.0,3.0,100,0.00,,,0.00,meteohub,2013-02-06 11:49:00,
2013-02-06 05:54:00,5.7,3.4,30.22,West,265,0.0,2.0,90,0.00,,,0.00,meteohub,2013-02-06 11:54:00,
2013-02-06 05:59:00,6.3,3.9,30.22,West,265,0.0,2.0,90,0.00,,,0.00,meteohub,2013-02-06 11:59:00,
2013-02-06 06:04:00,6.3,3.9,30.22,West,265,0.0,1.0,90,0.00,,,0.00,meteohub,2013-02-06 12:04:00,
2013-02-06 06:09:00,5.9,3.4,30.23,West,265,1.0,0.0,89,0.00,,,0.00,meteohub,2013-02-06 12:09:00,
2013-02-06 06:15:00,5.0,2.5,30.23,West,265,1.0,1.0,89,0.00,,,0.00,meteohub,2013-02-06 12:15:00,
2013-02-06 06:20:00,4.3,1.6,30.23,West,265,0.0,2.0,88,0.00,,,0.00,meteohub,2013-02-06 12:20:00,
2013-02-06 06:25:00,3.9,1.2,30.23,West,265,0.0,2.0,88,0.00,,,0.00,meteohub,2013-02-06 12:25:00,
2013-02-06 06:30:00,4.1,1.4,30.23,West,265,0.0,2.0,88,0.00,,,0.00,meteohub,2013-02-06 12:30:00,
2013-02-06 06:35:00,4.6,2.1,30.23,West,265,0.0,0.0,89,0.00,,,0.00,meteohub,2013-02-06 12:35:00,
2013-02-06 06:41:00,5.2,2.7,30.22,West,265,0.0,0.0,89,0.00,,,0.00,meteohub,2013-02-06 12:41:00,
2013-02-06 06:46:00,5.2,2.7,30.23,West,265,0.0,0.0,89,0.00,,,0.00,meteohub,2013-02-06 12:46:00,
2013-02-06 06:51:00,4.8,2.3,30.22,West,265,0.0,0.0,89,0.00,,,0.00,meteohub,2013-02-06 12:51:00,
2013-02-06 06:56:00,4.5,1.8,30.22,West,265,0.0,0.0,88,0.00,,,0.00,meteohub,2013-02-06 12:56:00,
2013-02-06 07:01:00,3.7,1.0,30.22,West,265,0.0,0.0,88,0.00,,,0.00,meteohub,2013-02-06 13:01:00,
2013-02-06 07:06:00,3.7,1.0,30.23,West,265,0.0,0.0,88,0.00,,,0.00,meteohub,2013-02-06 13:06:00,
2013-02-06 07:12:00,3.9,1.4,30.22,West,265,0.0,0.0,89,0.00,,,0.00,meteohub,2013-02-06 13:12:00,
2013-02-06 07:17:00,4.1,1.4,30.23,West,265,0.0,0.0,88,0.00,,,0.00,meteohub,2013-02-06 13:17:00,
2013-02-06 07:22:00,4.5,1.9,30.24,West,265,0.0,0.0,89,0.00,,,0.00,meteohub,2013-02-06 13:22:00,
2013-02-06 07:27:00,4.8,2.3,30.24,West,265,0.0,0.0,89,0.00,,,0.00,meteohub,2013-02-06 13:27:00,
2013-02-06 07:32:00,4.8,2.3,30.24,West,265,0.0,0.0,89,0.00,,,0.00,meteohub,2013-02-06 13:32:00,
2013-02-06 07:37:00,3.7,1.0,30.24,West,265,0.0,0.0,88,0.00,,,0.00,meteohub,2013-02-06 13:37:00,
2013-02-06 07:42:00,2.7,-0.4,30.25,West,265,0.0,0.0,87,0.00,,,0.00,meteohub,2013-02-06 13:42:00,
2013-02-06 07:47:00,1.9,-1.1,30.25,West,265,0.0,0.0,87,0.00,,,0.00,meteohub,2013-02-06 13:47:00,
2013-02-06 07:52:00,1.2,-2.0,30.26,West,265,0.0,0.0,86,0.00,,,0.00,meteohub,2013-02-06 13:52:00,
2013-02-06 07:57:00,1.6,-1.3,30.25,West,265,1.0,0.0,87,0.00,,,0.00,meteohub,2013-02-06 13:57:00,
2013-02-06 08:02:00,1.8,-1.1,30.25,West,265,1.0,2.0,87,0.00,,,0.00,meteohub,2013-02-06 14:02:00,
2013-02-06 08:07:00,2.1,-0.9,30.26,West,265,1.0,2.0,87,0.00,,,0.00,meteohub,2013-02-06 14:07:00,
2013-02-06 08:12:00,2.5,-0.6,30.25,West,265,0.0,2.0,87,0.00,,,0.00,meteohub,2013-02-06 14:12:00,
2013-02-06 08:17:00,2.8,0.1,30.26,West,265,0.0,2.0,88,0.00,,,0.00,meteohub,2013-02-06 14:17:00,
2013-02-06 08:22:00,3.6,0.9,30.26,West,265,1.0,2.0,88,0.00,,,0.00,meteohub,2013-02-06 14:22:00,
2013-02-06 08:27:00,4.3,1.6,30.26,West,265,2.0,3.0,88,0.00,,,0.00,meteohub,2013-02-06 14:27:00,
2013-02-06 08:32:00,4.6,1.9,30.26,West,265,0.0,3.0,88,0.00,,,0.00,meteohub,2013-02-06 14:32:00,
2013-02-06 08:37:00,5.2,2.5,30.27,West,265,2.0,3.0,88,0.00,,,0.00,meteohub,2013-02-06 14:37:00,
2013-02-06 08:42:00,5.2,2.5,30.26,West,265,0.0,3.0,88,0.00,,,0.00,meteohub,2013-02-06 14:42:00,
2013-02-06 08:47:00,5.4,2.7,30.27,West,265,2.0,2.0,88,0.00,,,0.00,meteohub,2013-02-06 14:47:00,
2013-02-06 08:52:00,5.9,3.2,30.27,West,265,3.0,3.0,88,0.00,,,0.00,meteohub,2013-02-06 14:52:00,
2013-02-06 08:57:00,6.3,3.6,30.28,West,265,3.0,3.0,88,0.00,,,0.00,meteohub,2013-02-06 14:57:00,
2013-02-06 09:02:00,6.4,3.7,30.28,West,265,2.0,5.0,88,0.00,,,0.00,meteohub,2013-02-06 15:02:00,
2013-02-06 09:07:00,7.0,4.5,30.29,West,265,2.0,5.0,89,0.00,,,0.00,meteohub,2013-02-06 15:07:00,
2013-02-06 09:12:00,7.3,4.8,30.28,West,265,3.0,5.0,89,0.00,,,0.00,meteohub,2013-02-06 15:12:00,
2013-02-06 09:17:00,8.1,5.5,30.28,West,265,2.0,5.0,89,0.00,,,0.00,meteohub,2013-02-06 15:17:00,
2013-02-06 09:22:00,9.0,6.6,30.28,West,265,0.0,4.0,90,0.00,,,0.00,meteohub,2013-02-06 15:22:00,
2013-02-06 09:27:00,9.7,7.3,30.28,West,265,1.0,4.0,90,0.00,,,0.00,meteohub,2013-02-06 15:27:00,
2013-02-06 09:32:00,10.4,8.1,30.29,West,265,0.0,4.0,90,0.00,,,0.00,meteohub,2013-02-06 15:32:00,
2013-02-06 09:37:00,11.1,8.8,30.29,West,265,2.0,2.0,90,0.00,,,0.00,meteohub,2013-02-06 15:37:00,
2013-02-06 09:42:00,11.8,9.5,30.28,West,265,0.0,3.0,90,0.00,,,0.00,meteohub,2013-02-06 15:42:00,
2013-02-06 09:47:00,12.6,10.2,30.28,West,265,2.0,3.0,90,0.00,,,0.00,meteohub,2013-02-06 15:47:00,
2013-02-06 09:52:00,13.3,10.9,30.27,WSW,254,4.0,4.0,90,0.00,,,0.00,meteohub,2013-02-06 15:52:00,
2013-02-06 09:57:00,13.5,11.1,30.27,WSW,244,3.0,6.0,90,0.00,,,0.00,meteohub,2013-02-06 15:57:00,
2013-02-06 10:02:00,14.2,11.8,30.29,WSW,240,1.0,6.0,90,0.00,,,0.00,meteohub,2013-02-06 16:02:00,
2013-02-06 10:07:00,15.1,12.7,30.29,WSW,240,0.0,6.0,90,0.00,,,0.00,meteohub,2013-02-06 16:07:00,
2013-02-06 10:12:00,15.4,13.1,30.29,WSW,240,2.0,5.0,90,0.00,,,0.00,meteohub,2013-02-06 16:12:00,
2013-02-06 10:17:00,16.0,13.6,30.28,WSW,240,1.0,5.0,90,0.00,,,0.00,meteohub,2013-02-06 16:17:00,
2013-02-06 10:22:00,16.3,14.0,30.27,WSW,240,2.0,5.0,90,0.00,,,0.00,meteohub,2013-02-06 16:22:00,
2013-02-06 10:27:00,16.7,14.0,30.29,WSW,240,2.0,4.0,89,0.00,,,0.00,meteohub,2013-02-06 16:27:00,
2013-02-06 10:32:00,17.1,14.4,30.29,WSW,240,3.0,4.0,89,0.00,,,0.00,meteohub,2013-02-06 16:32:00,
2013-02-06 10:37:00,17.2,14.5,30.29,WSW,240,3.0,5.0,89,0.00,,,0.00,meteohub,2013-02-06 16:37:00,
2013-02-06 10:42:00,17.4,14.7,30.28,WSW,240,5.0,5.0,89,0.00,,,0.00,meteohub,2013-02-06 16:42:00,
2013-02-06 10:47:00,17.8,15.1,30.27,SW,217,5.0,5.0,89,0.00,,,0.00,meteohub,2013-02-06 16:47:00,
2013-02-06 10:52:00,18.3,15.4,30.27,SSW,194,4.0,7.0,88,0.00,,,0.00,meteohub,2013-02-06 16:52:00,
2013-02-06 10:57:00,19.0,15.6,30.27,South,180,4.0,8.0,86,0.00,,,0.00,meteohub,2013-02-06 16:57:00,
2013-02-06 11:02:00,19.6,15.6,30.27,South,179,4.0,9.0,84,0.00,,,0.00,meteohub,2013-02-06 17:02:00,
2013-02-06 11:07:00,19.8,15.8,30.27,South,179,3.0,9.0,84,0.00,,,0.00,meteohub,2013-02-06 17:07:00,
2013-02-06 11:12:00,20.1,15.4,30.27,South,178,2.0,8.0,82,0.00,,,0.00,meteohub,2013-02-06 17:12:00,
2013-02-06 11:17:00,20.5,15.3,30.27,South,178,1.0,8.0,80,0.00,,,0.00,meteohub,2013-02-06 17:17:00,
2013-02-06 11:22:00,20.7,15.3,30.26,South,178,3.0,6.0,79,0.00,,,0.00,meteohub,2013-02-06 17:22:00,
2013-02-06 11:27:00,21.2,15.4,30.26,South,179,2.0,6.0,78,0.00,,,0.00,meteohub,2013-02-06 17:27:00,
2013-02-06 11:32:00,21.7,16.0,30.25,South,175,4.0,6.0,78,0.00,,,0.00,meteohub,2013-02-06 17:32:00,
2013-02-06 11:38:00,22.1,16.0,30.25,South,175,5.0,6.0,77,0.00,,,0.00,meteohub,2013-02-06 17:38:00,
2013-02-06 11:43:00,22.3,16.2,30.25,South,174,6.0,7.0,77,0.00,,,0.00,meteohub,2013-02-06 17:43:00,
2013-02-06 11:48:00,22.3,16.2,30.25,South,185,5.0,9.0,77,0.00,,,0.00,meteohub,2013-02-06 17:48:00,
2013-02-06 11:53:00,21.6,15.4,30.25,South,174,8.0,10.0,77,0.00,,,0.00,meteohub,2013-02-06 17:53:00,
2013-02-06 11:58:00,21.7,16.0,30.25,South,175,5.0,11.0,78,0.00,,,0.00,meteohub,2013-02-06 17:58:00,
2013-02-06 12:03:00,22.5,16.7,30.25,South,174,5.0,11.0,78,0.00,,,0.00,meteohub,2013-02-06 18:03:00,
2013-02-06 12:09:00,22.5,16.3,30.26,South,191,7.0,11.0,77,0.00,,,0.00,meteohub,2013-02-06 18:09:00,
2013-02-06 12:14:00,22.6,16.9,30.25,South,190,6.0,9.0,78,0.00,,,0.00,meteohub,2013-02-06 18:14:00,
2013-02-06 12:19:00,22.6,16.9,30.25,South,190,4.0,9.0,78,0.00,,,0.00,meteohub,2013-02-06 18:19:00,
2013-02-06 12:24:00,23.2,17.4,30.25,South,190,3.0,9.0,78,0.00,,,0.00,meteohub,2013-02-06 18:24:00,
2013-02-06 12:29:00,23.2,17.4,30.26,South,190,4.0,7.0,78,0.00,,,0.00,meteohub,2013-02-06 18:29:00,
2013-02-06 12:35:00,23.2,17.4,30.25,South,190,3.0,7.0,78,0.00,,,0.00,meteohub,2013-02-06 18:35:00,
2013-02-06 12:40:00,23.2,17.4,30.25,South,190,3.0,6.0,78,0.00,,,0.00,meteohub,2013-02-06 18:40:00,
2013-02-06 12:45:00,23.2,17.4,30.25,South,190,2.0,6.0,78,0.00,,,0.00,meteohub,2013-02-06 18:45:00,
2013-02-06 12:50:00,23.9,18.0,30.25,South,190,0.0,6.0,78,0.00,,,0.00,meteohub,2013-02-06 18:50:00,
2013-02-06 12:55:00,25.0,18.9,30.24,South,190,2.0,6.0,77,0.00,,,0.00,meteohub,2013-02-06 18:55:00,
2013-02-06 13:00:00,25.2,18.3,30.25,South,190,6.0,7.0,75,0.00,,,0.00,meteohub,2013-02-06 19:00:00,
2013-02-06 13:06:00,25.0,18.5,30.25,South,190,5.0,7.0,76,0.00,,,0.00,meteohub,2013-02-06 19:06:00,
2013-02-06 13:11:00,25.0,18.5,30.25,SSW,192,6.0,8.0,76,0.00,,,0.00,meteohub,2013-02-06 19:11:00,
2013-02-06 13:16:00,25.2,18.7,30.25,South,188,4.0,9.0,76,0.00,,,0.00,meteohub,2013-02-06 19:16:00,
2013-02-06 13:21:00,25.0,18.9,30.25,South,189,5.0,9.0,77,0.00,,,0.00,meteohub,2013-02-06 19:21:00,
2013-02-06 13:26:00,25.0,18.9,30.24,South,189,5.0,8.0,77,0.00,,,0.00,meteohub,2013-02-06 19:26:00,
2013-02-06 13:31:00,24.6,18.5,30.24,South,189,7.0,8.0,77,0.00,,,0.00,meteohub,2013-02-06 19:31:00,
2013-02-06 13:37:00,25.0,18.5,30.24,South,189,4.0,8.0,76,0.00,,,0.00,meteohub,2013-02-06 19:37:00,
2013-02-06 13:42:00,25.2,18.7,30.24,South,189,6.0,8.0,76,0.00,,,0.00,meteohub,2013-02-06 19:42:00,
2013-02-06 13:47:00,25.5,19.4,30.24,South,189,6.0,8.0,77,0.00,,,0.00,meteohub,2013-02-06 19:47:00,
2013-02-06 13:52:00,25.9,19.4,30.24,South,189,5.0,7.0,76,0.00,,,0.00,meteohub,2013-02-06 19:52:00,
2013-02-06 13:57:00,25.9,19.4,30.24,South,189,4.0,7.0,76,0.00,,,0.00,meteohub,2013-02-06 19:57:00,
2013-02-06 14:02:00,25.9,19.8,30.24,South,189,5.0,6.0,77,0.00,,,0.00,meteohub,2013-02-06 20:02:00,
2013-02-06 14:08:00,25.7,19.6,30.24,South,190,5.0,8.0,77,0.00,,,0.00,meteohub,2013-02-06 20:08:00,
2013-02-06 14:13:00,25.7,19.6,30.23,SSW,196,7.0,8.0,77,0.00,,,0.00,meteohub,2013-02-06 20:13:00,
2013-02-06 14:18:00,25.5,19.4,30.23,SSW,197,6.0,9.0,77,0.00,,,0.00,meteohub,2013-02-06 20:18:00,
2013-02-06 14:23:00,25.7,19.6,30.23,SSW,197,7.0,9.0,77,0.00,,,0.00,meteohub,2013-02-06 20:23:00,
2013-02-06 14:28:00,25.9,19.9,30.22,SSW,194,4.0,8.0,78,0.00,,,0.00,meteohub,2013-02-06 20:28:00,
2013-02-06 14:33:00,26.1,20.1,30.22,SSW,194,4.0,7.0,78,0.00,,,0.00,meteohub,2013-02-06 20:33:00,
2013-02-06 14:38:00,26.1,20.1,30.22,South,188,7.0,7.0,78,0.00,,,0.00,meteohub,2013-02-06 20:38:00,
2013-02-06 14:43:00,25.9,19.9,30.22,South,187,6.0,9.0,78,0.00,,,0.00,meteohub,2013-02-06 20:43:00,
2013-02-06 14:48:00,26.1,20.1,30.22,South,187,6.0,9.0,78,0.00,,,0.00,meteohub,2013-02-06 20:48:00,
2013-02-06 14:53:00,26.1,20.5,30.22,South,187,3.0,9.0,79,0.00,,,0.00,meteohub,2013-02-06 20:53:00,
2013-02-06 14:59:00,26.1,20.1,30.22,South,187,5.0,8.0,78,0.00,,,0.00,meteohub,2013-02-06 20:59:00,
2013-02-06 15:04:00,26.1,20.5,30.22,South,187,2.0,7.0,79,0.00,,,0.00,meteohub,2013-02-06 21:04:00,
2013-02-06 15:09:00,26.2,20.7,30.22,South,187,7.0,8.0,79,0.00,,,0.00,meteohub,2013-02-06 21:09:00,
2013-02-06 15:14:00,26.2,20.7,30.22,South,187,4.0,8.0,79,0.00,,,0.00,meteohub,2013-02-06 21:14:00,
2013-02-06 15:19:00,26.2,20.7,30.22,South,187,5.0,7.0,79,0.00,,,0.00,meteohub,2013-02-06 21:19:00,
2013-02-06 15:24:00,26.2,20.7,30.22,South,187,3.0,7.0,79,0.00,,,0.00,meteohub,2013-02-06 21:24:00,
2013-02-06 15:30:00,26.2,20.7,30.22,South,187,5.0,7.0,79,0.00,,,0.00,meteohub,2013-02-06 21:30:00,
2013-02-06 15:35:00,26.4,20.8,30.22,South,187,4.0,8.0,79,0.00,,,0.00,meteohub,2013-02-06 21:35:00,
2013-02-06 15:51:00,26.2,21.2,30.22,South,187,4.0,7.0,81,0.00,,,0.00,meteohub,2013-02-06 21:51:00,
2013-02-06 15:56:00,26.2,21.6,30.22,South,187,4.0,7.0,82,0.00,,,0.00,meteohub,2013-02-06 21:56:00,
2013-02-06 16:02:00,26.1,21.9,30.21,South,187,3.0,6.0,84,0.00,,,0.00,meteohub,2013-02-06 22:02:00,
2013-02-06 16:07:00,25.9,23.9,30.21,SSE,166,5.0,5.0,92,0.00,,,0.00,meteohub,2013-02-06 22:07:00,
2013-02-06 16:12:00,25.7,22.1,30.21,SSE,165,0.0,7.0,86,0.00,,,0.00,meteohub,2013-02-06 22:12:00,
2013-02-06 16:17:00,25.9,22.5,30.21,SSE,165,0.0,7.0,87,0.00,,,0.00,meteohub,2013-02-06 22:17:00,
2013-02-06 16:22:00,25.9,22.5,30.21,SSE,165,0.0,7.0,87,0.00,,,0.00,meteohub,2013-02-06 22:22:00,
2013-02-06 16:27:00,26.1,22.6,30.21,SSE,165,4.0,4.0,87,0.00,,,0.00,meteohub,2013-02-06 22:27:00,
2013-02-06 16:33:00,26.1,22.6,30.19,SSE,163,4.0,4.0,87,0.00,,,0.00,meteohub,2013-02-06 22:33:00,
2013-02-06 16:38:00,26.1,23.0,30.19,SE,144,4.0,8.0,88,0.00,,,0.00,meteohub,2013-02-06 22:38:00,
2013-02-06 16:43:00,26.1,23.0,30.19,SE,144,4.0,8.0,88,0.00,,,0.00,meteohub,2013-02-06 22:43:00,
2013-02-06 16:48:00,26.1,23.0,30.19,SE,144,3.0,8.0,88,0.00,,,0.00,meteohub,2013-02-06 22:48:00,
2013-02-06 16:53:00,26.2,22.8,30.18,SE,144,3.0,7.0,87,0.00,,,0.00,meteohub,2013-02-06 22:53:00,
2013-02-06 16:59:00,26.2,22.8,30.18,SE,144,5.0,6.0,87,0.00,,,0.00,meteohub,2013-02-06 22:59:00,
2013-02-06 17:04:00,26.4,23.0,30.18,SE,144,5.0,6.0,87,0.00,,,0.00,meteohub,2013-02-06 23:04:00,
2013-02-06 17:09:00,26.4,22.8,30.19,SE,144,2.0,5.0,86,0.00,,,0.00,meteohub,2013-02-06 23:09:00,
2013-02-06 17:14:00,26.6,23.0,30.18,SE,144,4.0,5.0,86,0.00,,,0.00,meteohub,2013-02-06 23:14:00,
2013-02-06 17:19:00,26.6,23.0,30.19,SE,144,1.0,5.0,86,0.00,,,0.00,meteohub,2013-02-06 23:19:00,
2013-02-06 17:25:00,26.6,23.0,30.18,SE,144,3.0,5.0,86,0.00,,,0.00,meteohub,2013-02-06 23:25:00,
2013-02-06 17:30:00,26.6,23.0,30.18,SE,144,3.0,5.0,86,0.00,,,0.00,meteohub,2013-02-06 23:30:00,
2013-02-06 17:35:00,26.8,23.2,30.17,SE,141,3.0,6.0,86,0.00,,,0.00,meteohub,2013-02-06 23:35:00,
2013-02-06 17:40:00,26.8,23.2,30.17,SE,141,2.0,6.0,86,0.00,,,0.00,meteohub,2013-02-06 23:40:00,
2013-02-06 17:45:00,27.0,23.4,30.17,SE,138,6.0,6.0,86,0.00,,,0.00,meteohub,2013-02-06 23:45:00,
2013-02-06 17:50:00,27.1,23.2,30.18,SE,136,3.0,6.0,85,0.00,,,0.00,meteohub,2013-02-06 23:50:00,
2013-02-06 17:56:00,27.3,23.4,30.17,SE,136,3.0,6.0,85,0.00,,,0.00,meteohub,2013-02-06 23:56:00,
2013-02-06 18:01:00,27.7,23.5,30.17,SE,134,1.0,6.0,84,0.00,,,0.00,meteohub,2013-02-07 00:01:00,
2013-02-06 18:06:00,27.5,23.4,30.18,SE,134,1.0,6.0,84,0.00,,,0.00,meteohub,2013-02-07 00:06:00,
2013-02-06 18:11:00,27.3,23.4,30.18,SE,134,0.0,6.0,85,0.00,,,0.00,meteohub,2013-02-07 00:11:00,
2013-02-06 18:16:00,27.3,23.4,30.19,SE,134,1.0,5.0,85,0.00,,,0.00,meteohub,2013-02-07 00:16:00,
2013-02-06 18:22:00,27.3,23.4,30.19,SE,134,0.0,2.0,85,0.00,,,0.00,meteohub,2013-02-07 00:22:00,
2013-02-06 18:27:00,27.3,23.4,30.19,SE,134,0.0,2.0,85,0.00,,,0.00,meteohub,2013-02-07 00:27:00,
2013-02-06 18:32:00,27.3,23.4,30.20,SE,134,0.0,3.0,85,0.00,,,0.00,meteohub,2013-02-07 00:32:00,
2013-02-06 18:37:00,27.3,23.4,30.19,SE,134,0.0,3.0,85,0.00,,,0.00,meteohub,2013-02-07 00:37:00,
2013-02-06 18:42:00,27.3,23.4,30.19,SE,134,0.0,1.0,85,0.00,,,0.00,meteohub,2013-02-07 00:42:00,
2013-02-06 18:47:00,27.3,23.4,30.19,SE,134,2.0,0.0,85,0.00,,,0.00,meteohub,2013-02-07 00:47:00,
2013-02-06 18:52:00,27.3,23.4,30.19,SE,134,3.0,3.0,85,0.00,,,0.00,meteohub,2013-02-07 00:52:00,
2013-02-06 18:57:00,27.5,23.5,30.18,SE,134,3.0,5.0,85,0.00,,,0.00,meteohub,2013-02-07 00:57:00,
2013-02-06 19:02:00,27.7,23.7,30.19,SE,134,3.0,5.0,85,0.00,,,0.00,meteohub,2013-02-07 01:02:00,
2013-02-06 19:07:00,28.0,23.9,30.19,SE,134,5.0,5.0,84,0.00,,,0.00,meteohub,2013-02-07 01:07:00,
2013-02-06 19:12:00,28.0,23.9,30.18,SE,132,5.0,6.0,84,0.00,,,0.00,meteohub,2013-02-07 01:12:00,
2013-02-06 19:17:00,28.4,23.9,30.18,SE,131,6.0,7.0,83,0.00,,,0.00,meteohub,2013-02-07 01:17:00,
2013-02-06 19:22:00,28.6,23.7,30.18,SE,131,5.0,7.0,82,0.00,,,0.00,meteohub,2013-02-07 01:22:00,
2013-02-06 19:27:00,28.6,23.7,30.17,SE,131,2.0,7.0,82,0.00,,,0.00,meteohub,2013-02-07 01:27:00,
2013-02-06 19:32:00,28.6,23.7,30.18,SE,131,2.0,7.0,82,0.00,,,0.00,meteohub,2013-02-07 01:32:00,
2013-02-06 19:37:00,28.6,23.7,30.17,SE,131,6.0,6.0,82,0.00,,,0.00,meteohub,2013-02-07 01:37:00,
2013-02-06 19:42:00,28.6,23.7,30.17,SE,134,7.0,8.0,82,0.00,,,0.00,meteohub,2013-02-07 01:42:00,
2013-02-06 19:47:00,28.8,24.3,30.17,SE,130,8.0,8.0,83,0.00,,,0.00,meteohub,2013-02-07 01:47:00,
2013-02-06 19:52:00,28.8,24.3,30.17,SE,137,8.0,13.0,83,0.00,,,0.00,meteohub,2013-02-07 01:52:00,
2013-02-06 19:57:00,28.6,24.4,30.17,SE,135,7.0,13.0,84,0.00,,,0.00,meteohub,2013-02-07 01:57:00,
2013-02-06 20:02:00,28.4,24.3,30.16,SE,125,6.0,13.0,84,0.00,,,0.00,meteohub,2013-02-07 02:02:00,
2013-02-06 20:07:00,28.4,24.4,30.16,SE,126,7.0,11.0,85,0.00,,,0.00,meteohub,2013-02-07 02:07:00,
2013-02-06 20:12:00,28.2,24.6,30.17,SE,124,7.0,11.0,86,0.00,,,0.00,meteohub,2013-02-07 02:12:00,
2013-02-06 20:17:00,28.0,24.6,30.17,SE,126,5.0,11.0,87,0.00,,,0.00,meteohub,2013-02-07 02:17:00,
2013-02-06 20:22:00,27.9,25.0,30.17,ESE,113,9.0,10.0,89,0.00,,,0.00,meteohub,2013-02-07 02:22:00,
2013-02-06 20:27:00,27.7,25.2,30.16,ESE,115,10.0,10.0,90,0.00,,,0.00,meteohub,2013-02-07 02:27:00,
2013-02-06 20:32:00,27.3,24.8,30.16,ESE,114,8.0,10.0,90,0.00,,,0.00,meteohub,2013-02-07 02:32:00,
2013-02-06 20:37:00,27.1,24.8,30.16,ESE,110,7.0,10.0,91,0.00,,,0.00,meteohub,2013-02-07 02:37:00,
2013-02-06 20:42:00,27.1,25.2,30.16,ESE,115,7.0,10.0,92,0.00,,,0.00,meteohub,2013-02-07 02:42:00,
2013-02-06 20:47:00,27.1,25.2,30.16,ESE,111,5.0,10.0,92,0.00,,,0.00,meteohub,2013-02-07 02:47:00,
2013-02-06 20:52:00,27.1,25.2,30.15,ESE,111,7.0,10.0,92,0.00,,,0.00,meteohub,2013-02-07 02:52:00,
2013-02-06 20:57:00,27.3,25.5,30.15,ESE,109,7.0,10.0,93,0.00,,,0.00,meteohub,2013-02-07 02:57:00,
2013-02-06 21:02:00,27.5,25.7,30.15,ESE,115,7.0,10.0,93,0.00,,,0.00,meteohub,2013-02-07 03:02:00,
2013-02-06 21:07:00,27.7,25.9,30.14,ESE,119,7.0,11.0,93,0.00,,,0.00,meteohub,2013-02-07 03:07:00,
2013-02-06 21:12:00,27.9,26.1,30.14,SE,133,7.0,11.0,93,0.00,,,0.00,meteohub,2013-02-07 03:12:00,
2013-02-06 21:17:00,28.0,26.2,30.14,SE,126,6.0,12.0,93,0.00,,,0.00,meteohub,2013-02-07 03:17:00,
2013-02-06 21:22:00,28.0,26.2,30.14,SE,135,9.0,13.0,93,0.00,,,0.00,meteohub,2013-02-07 03:22:00,
2013-02-06 21:27:00,28.2,26.4,30.15,SE,138,12.0,14.0,93,0.00,,,0.00,meteohub,2013-02-07 03:27:00,
2013-02-06 21:32:00,28.2,26.4,30.14,SE,138,11.0,14.0,93,0.00,,,0.00,meteohub,2013-02-07 03:32:00,
2013-02-06 21:37:00,28.6,26.8,30.14,ESE,119,11.0,14.0,93,0.00,,,0.00,meteohub,2013-02-07 03:37:00,
2013-02-06 21:42:00,28.8,27.0,30.14,SE,138,15.0,16.0,93,0.00,,,0.00,meteohub,2013-02-07 03:42:00,
2013-02-06 21:47:00,29.1,27.3,30.13,SE,130,13.0,16.0,93,0.00,,,0.00,meteohub,2013-02-07 03:47:00,
2013-02-06 21:52:00,29.5,27.5,30.14,SE,124,10.0,18.0,92,0.00,,,0.00,meteohub,2013-02-07 03:52:00,
2013-02-06 21:57:00,29.7,27.7,30.14,SE,134,12.0,18.0,92,0.00,,,0.00,meteohub,2013-02-07 03:57:00,
2013-02-06 22:02:00,29.8,27.5,30.13,SE,134,12.0,18.0,91,0.00,,,0.00,meteohub,2013-02-07 04:02:00,
2013-02-06 22:07:00,30.0,27.7,30.13,SE,130,10.0,14.0,91,0.00,,,0.00,meteohub,2013-02-07 04:07:00,
2013-02-06 22:12:00,30.4,27.9,30.13,SE,141,7.0,14.0,90,0.00,,,0.00,meteohub,2013-02-07 04:12:00,
2013-02-06 22:17:00,30.6,27.7,30.12,SE,128,9.0,16.0,89,0.00,,,0.00,meteohub,2013-02-07 04:17:00,
2013-02-06 22:22:00,30.7,27.9,30.13,SE,136,10.0,17.0,89,0.00,,,0.00,meteohub,2013-02-07 04:22:00,
2013-02-06 22:27:00,30.9,27.9,30.13,SE,134,9.0,17.0,88,0.00,,,0.00,meteohub,2013-02-07 04:27:00,
2013-02-06 22:32:00,31.3,28.2,30.13,SSE,158,8.0,16.0,88,0.00,,,0.00,meteohub,2013-02-07 04:32:00,
2013-02-06 22:37:00,31.5,28.0,30.13,SSE,156,5.0,15.0,87,0.00,,,0.00,meteohub,2013-02-07 04:37:00,
2013-02-06 22:42:00,31.6,28.2,30.13,SSE,148,4.0,15.0,87,0.00,,,0.00,meteohub,2013-02-07 04:42:00,
2013-02-06 22:47:00,31.6,27.9,30.14,South,172,10.0,11.0,86,0.00,,,0.00,meteohub,2013-02-07 04:47:00,
2013-02-06 22:52:00,31.6,27.9,30.14,South,176,5.0,12.0,86,0.00,,,0.00,meteohub,2013-02-07 04:52:00,
2013-02-06 22:57:00,31.8,28.0,30.14,South,176,5.0,13.0,86,0.00,,,0.00,meteohub,2013-02-07 04:57:00,
2013-02-06 23:00:00,31.8,28.0,30.15,South,184,6.0,13.0,86,0.00,,,0.00,meteohub,2013-02-07 05:00:00,
2013-02-06 23:01:00,31.8,28.0,30.15,South,180,5.0,13.0,86,0.00,,,0.00,meteohub,2013-02-07 05:01:00,
2013-02-06 23:03:00,31.8,28.0,30.15,SSE,161,7.0,13.0,86,0.00,,,0.00,meteohub,2013-02-07 05:03:00,
2013-02-06 23:08:00,31.8,28.0,30.14,South,175,6.0,13.0,86,0.00,,,0.00,meteohub,2013-02-07 05:08:00,
2013-02-06 23:13:00,31.8,28.0,30.14,SSE,158,2.0,10.0,86,0.00,,,0.00,meteohub,2013-02-07 05:13:00,
2013-02-06 23:18:00,31.6,27.9,30.14,SSE,160,0.0,10.0,86,0.00,,,0.00,meteohub,2013-02-07 05:18:00,
2013-02-06 23:23:00,31.6,28.2,30.14,SE,126,5.0,10.0,87,0.00,,,0.00,meteohub,2013-02-07 05:23:00,
2013-02-06 23:29:00,31.6,28.2,30.14,SE,136,2.0,8.0,87,0.00,,,0.00,meteohub,2013-02-07 05:29:00,
2013-02-06 23:34:00,31.6,28.2,30.14,SE,136,3.0,8.0,87,0.00,,,0.00,meteohub,2013-02-07 05:34:00,
2013-02-06 23:39:00,31.6,28.2,30.14,SE,134,8.0,8.0,87,0.00,,,0.00,meteohub,2013-02-07 05:39:00,
2013-02-06 23:44:00,31.8,28.8,30.14,SE,132,8.0,10.0,88,0.00,,,0.00,meteohub,2013-02-07 05:44:00,
2013-02-06 23:49:00,32.0,28.6,30.14,SE,137,6.0,12.0,87,0.00,,,0.00,meteohub,2013-02-07 05:49:00,
2013-02-06 23:54:00,32.2,28.8,30.15,SE,137,1.0,12.0,87,0.00,,,0.00,meteohub,2013-02-07 05:54:00,